sensor_id;sensor_type;location;lat;lon;timestamp;pressure;altitude;pressure_sealevel;temperature;humidity
75815;BME280;64451;45.574;14.224;2023-03-14T00:04:43;96454.97;;;9.35;72.04
75815;BME280;64451;45.574;14.224;2023-03-14T00:07:07;96451.41;;;9.39;72.11
75815;BME280;64451;45.574;14.224;2023-03-14T00:09:17;96450.97;;;9.32;73.13
75815;BME280;64451;45.574;14.224;2023-03-14T00:11:39;96449.22;;;9.22;73.89
75815;BME280;64451;45.574;14.224;2023-03-14T00:14:20;96440.31;;;9.46;73.43
75815;BME280;64451;45.574;14.224;2023-03-14T00:16:21;96441.63;;;9.29;74.09
75815;BME280;64451;45.574;14.224;2023-03-14T00:18:32;96438.50;;;9.22;75.15
75815;BME280;64451;45.574;14.224;2023-03-14T00:21:00;96416.81;;;9.38;74.98
75815;BME280;64451;45.574;14.224;2023-03-14T00:23:22;96410.69;;;9.32;75.91
75815;BME280;64451;45.574;14.224;2023-03-14T00:25:32;96414.25;;;9.46;75.69
75815;BME280;64451;45.574;14.224;2023-03-14T00:27:51;96420.13;;;9.29;76.76
75815;BME280;64451;45.574;14.224;2023-03-14T00:30:05;96414.63;;;9.21;77.40
75815;BME280;64451;45.574;14.224;2023-03-14T00:32:17;96405.56;;;9.36;76.66
75815;BME280;64451;45.574;14.224;2023-03-14T00:36:37;96404.09;;;9.43;76.55
75815;BME280;64451;45.574;14.224;2023-03-14T00:38:46;96400.25;;;9.49;76.09
75815;BME280;64451;45.574;14.224;2023-03-14T00:41:14;96401.44;;;9.43;76.83
75815;BME280;64451;45.574;14.224;2023-03-14T00:48:13;96388.84;;;9.39;77.69
75815;BME280;64451;45.574;14.224;2023-03-14T00:50:22;96392.13;;;9.36;77.88
75815;BME280;64451;45.574;14.224;2023-03-14T00:52:50;96392.50;;;9.29;78.64
75815;BME280;64451;45.574;14.224;2023-03-14T00:55:03;96403.78;;;9.26;79.01
75815;BME280;64451;45.574;14.224;2023-03-14T00:57:13;96405.19;;;9.23;79.30
75815;BME280;64451;45.574;14.224;2023-03-14T00:59:19;96392.09;;;9.17;79.61
75815;BME280;64451;45.574;14.224;2023-03-14T01:01:28;96374.25;;;9.26;79.27
75815;BME280;64451;45.574;14.224;2023-03-14T01:03:32;96387.81;;;9.35;79.16
75815;BME280;64451;45.574;14.224;2023-03-14T01:05:32;96376.81;;;9.36;79.26
75815;BME280;64451;45.574;14.224;2023-03-14T01:08:01;96369.13;;;9.29;79.85
75815;BME280;64451;45.574;14.224;2023-03-14T01:12:34;96359.97;;;9.31;79.95
75815;BME280;64451;45.574;14.224;2023-03-14T01:14:41;96362.66;;;9.31;80.08
75815;BME280;64451;45.574;14.224;2023-03-14T01:23:54;96308.75;;;9.27;80.56
75815;BME280;64451;45.574;14.224;2023-03-14T01:26:01;96306.47;;;9.34;80.26
75815;BME280;64451;45.574;14.224;2023-03-14T01:28:19;96293.44;;;9.27;80.73
75815;BME280;64451;45.574;14.224;2023-03-14T01:30:26;96304.44;;;9.26;81.10
75815;BME280;64451;45.574;14.224;2023-03-14T01:34:51;96288.13;;;9.22;81.71
75815;BME280;64451;45.574;14.224;2023-03-14T01:36:54;96293.63;;;9.31;81.60
75815;BME280;64451;45.574;14.224;2023-03-14T01:38:54;96284.97;;;9.20;82.32
75815;BME280;64451;45.574;14.224;2023-03-14T01:41:02;96281.59;;;9.28;82.12
75815;BME280;64451;45.574;14.224;2023-03-14T01:47:10;96284.00;;;9.30;82.41
75815;BME280;64451;45.574;14.224;2023-03-14T01:49:43;96282.09;;;9.31;82.87
75815;BME280;64451;45.574;14.224;2023-03-14T01:54:47;96276.69;;;9.49;82.13
75815;BME280;64451;45.574;14.224;2023-03-14T01:57:42;96276.00;;;9.57;81.47
75815;BME280;64451;45.574;14.224;2023-03-14T01:59:19;96274.78;;;9.50;81.67
75815;BME280;64451;45.574;14.224;2023-03-14T02:01:31;96267.03;;;9.48;81.69
75815;BME280;64451;45.574;14.224;2023-03-14T02:06:29;96262.25;;;9.45;82.18
75815;BME280;64451;45.574;14.224;2023-03-14T02:08:47;96264.06;;;9.50;82.05
75815;BME280;64451;45.574;14.224;2023-03-14T02:23:05;96242.66;;;9.45;82.46
75815;BME280;64451;45.574;14.224;2023-03-14T02:25:16;96241.09;;;9.44;82.45
75815;BME280;64451;45.574;14.224;2023-03-14T02:27:42;96230.84;;;9.46;82.29
75815;BME280;64451;45.574;14.224;2023-03-14T02:33:08;96218.56;;;9.40;81.93
75815;BME280;64451;45.574;14.224;2023-03-14T02:35:43;96207.16;;;9.48;81.86
75815;BME280;64451;45.574;14.224;2023-03-14T02:42:28;96206.06;;;9.35;81.15
75815;BME280;64451;45.574;14.224;2023-03-14T02:44:31;96210.28;;;9.22;82.08
75815;BME280;64451;45.574;14.224;2023-03-14T02:49:16;96207.53;;;9.41;82.04
75815;BME280;64451;45.574;14.224;2023-03-14T02:51:23;96202.53;;;9.35;82.16
75815;BME280;64451;45.574;14.224;2023-03-14T02:56:03;96198.28;;;9.34;81.92
75815;BME280;64451;45.574;14.224;2023-03-14T03:02:09;96201.50;;;9.17;82.37
75815;BME280;64451;45.574;14.224;2023-03-14T03:04:10;96197.53;;;9.14;82.69
75815;BME280;64451;45.574;14.224;2023-03-14T03:06:10;96197.53;;;9.14;83.32
75815;BME280;64451;45.574;14.224;2023-03-14T03:08:10;96190.56;;;9.13;84.15
75815;BME280;64451;45.574;14.224;2023-03-14T03:10:11;96187.59;;;9.15;84.87
75815;BME280;64451;45.574;14.224;2023-03-14T03:12:12;96182.16;;;9.20;85.15
75815;BME280;64451;45.574;14.224;2023-03-14T03:14:12;96181.72;;;9.13;85.32
75815;BME280;64451;45.574;14.224;2023-03-14T03:16:12;96174.66;;;9.17;84.68
75815;BME280;64451;45.574;14.224;2023-03-14T03:18:15;96167.34;;;9.22;84.83
75815;BME280;64451;45.574;14.224;2023-03-14T03:20:15;96167.03;;;9.10;85.69
75815;BME280;64451;45.574;14.224;2023-03-14T03:22:15;96167.59;;;9.07;85.78
75815;BME280;64451;45.574;14.224;2023-03-14T03:24:16;96183.19;;;9.05;86.37
75815;BME280;64451;45.574;14.224;2023-03-14T03:26:16;96191.75;;;9.07;86.42
75815;BME280;64451;45.574;14.224;2023-03-14T03:28:17;96176.91;;;8.96;87.05
75815;BME280;64451;45.574;14.224;2023-03-14T03:30:18;96186.75;;;9.00;86.95
75815;BME280;64451;45.574;14.224;2023-03-14T03:32:19;96186.56;;;8.97;87.36
75815;BME280;64451;45.574;14.224;2023-03-14T03:34:19;96179.59;;;8.96;87.57
75815;BME280;64451;45.574;14.224;2023-03-14T03:36:23;96209.13;;;8.96;87.74
75815;BME280;64451;45.574;14.224;2023-03-14T03:38:24;96196.00;;;8.94;88.12
75815;BME280;64451;45.574;14.224;2023-03-14T03:40:24;96199.31;;;9.05;87.14
75815;BME280;64451;45.574;14.224;2023-03-14T03:42:28;96203.94;;;8.99;87.34
75815;BME280;64451;45.574;14.224;2023-03-14T03:44:29;96206.44;;;8.96;87.89
75815;BME280;64451;45.574;14.224;2023-03-14T03:46:29;96208.81;;;8.97;87.85
75815;BME280;64451;45.574;14.224;2023-03-14T03:48:29;96201.25;;;8.99;87.52
75815;BME280;64451;45.574;14.224;2023-03-14T03:50:29;96203.66;;;9.01;87.51
75815;BME280;64451;45.574;14.224;2023-03-14T03:52:30;96205.94;;;8.94;87.83
75815;BME280;64451;45.574;14.224;2023-03-14T03:54:30;96209.69;;;8.93;88.01
75815;BME280;64451;45.574;14.224;2023-03-14T03:56:30;96207.09;;;8.88;88.35
75815;BME280;64451;45.574;14.224;2023-03-14T03:58:31;96212.75;;;8.86;88.26
75815;BME280;64451;45.574;14.224;2023-03-14T04:00:31;96206.59;;;8.86;88.66
75815;BME280;64451;45.574;14.224;2023-03-14T04:02:39;96194.84;;;8.82;88.72
75815;BME280;64451;45.574;14.224;2023-03-14T04:04:39;96196.66;;;8.86;88.59
75815;BME280;64451;45.574;14.224;2023-03-14T04:06:40;96200.63;;;8.89;89.05
75815;BME280;64451;45.574;14.224;2023-03-14T04:08:41;96208.97;;;8.87;88.57
75815;BME280;64451;45.574;14.224;2023-03-14T04:10:43;96200.72;;;8.84;89.07
75815;BME280;64451;45.574;14.224;2023-03-14T04:12:43;96206.06;;;8.84;89.11
75815;BME280;64451;45.574;14.224;2023-03-14T04:14:51;96193.97;;;8.86;89.06
75815;BME280;64451;45.574;14.224;2023-03-14T04:16:51;96198.31;;;8.82;89.42
75815;BME280;64451;45.574;14.224;2023-03-14T04:18:51;96203.09;;;8.85;89.39
75815;BME280;64451;45.574;14.224;2023-03-14T04:20:53;96189.97;;;8.84;89.12
75815;BME280;64451;45.574;14.224;2023-03-14T04:22:54;96193.25;;;8.81;89.02
75815;BME280;64451;45.574;14.224;2023-03-14T04:24:54;96187.59;;;8.82;88.96
75815;BME280;64451;45.574;14.224;2023-03-14T04:26:54;96181.34;;;8.87;89.21
75815;BME280;64451;45.574;14.224;2023-03-14T04:28:55;96191.78;;;8.88;88.93
75815;BME280;64451;45.574;14.224;2023-03-14T04:30:55;96189.41;;;8.87;88.84
75815;BME280;64451;45.574;14.224;2023-03-14T04:33:01;96188.31;;;8.88;88.79
75815;BME280;64451;45.574;14.224;2023-03-14T04:35:02;96174.47;;;8.81;88.58
75815;BME280;64451;45.574;14.224;2023-03-14T04:37:02;96170.63;;;8.87;87.33
75815;BME280;64451;45.574;14.224;2023-03-14T04:39:02;96170.56;;;8.73;88.08
75815;BME280;64451;45.574;14.224;2023-03-14T04:41:04;96166.16;;;8.63;88.47
75815;BME280;64451;45.574;14.224;2023-03-14T04:43:04;96161.09;;;8.62;88.01
75815;BME280;64451;45.574;14.224;2023-03-14T04:45:05;96165.78;;;8.70;87.26
75815;BME280;64451;45.574;14.224;2023-03-14T04:47:17;96163.78;;;8.62;88.03
75815;BME280;64451;45.574;14.224;2023-03-14T04:49:18;96171.16;;;8.70;87.15
75815;BME280;64451;45.574;14.224;2023-03-14T04:51:18;96156.34;;;8.72;86.49
75815;BME280;64451;45.574;14.224;2023-03-14T04:53:19;96157.44;;;8.71;86.51
75815;BME280;64451;45.574;14.224;2023-03-14T04:55:20;96151.50;;;8.75;86.61
75815;BME280;64451;45.574;14.224;2023-03-14T04:57:20;96152.44;;;8.65;87.49
75815;BME280;64451;45.574;14.224;2023-03-14T04:59:20;96156.44;;;8.67;86.65
75815;BME280;64451;45.574;14.224;2023-03-14T05:01:21;96156.97;;;8.69;85.96
75815;BME280;64451;45.574;14.224;2023-03-14T05:03:21;96153.69;;;8.72;85.59
75815;BME280;64451;45.574;14.224;2023-03-14T05:05:22;96133.63;;;8.84;84.77
75815;BME280;64451;45.574;14.224;2023-03-14T05:07:22;96139.00;;;8.84;84.53
75815;BME280;64451;45.574;14.224;2023-03-14T05:09:23;96129.84;;;8.85;84.40
75815;BME280;64451;45.574;14.224;2023-03-14T05:11:23;96127.06;;;8.76;85.36
75815;BME280;64451;45.574;14.224;2023-03-14T05:13:23;96122.47;;;8.77;84.55
75815;BME280;64451;45.574;14.224;2023-03-14T05:15:24;96132.03;;;8.83;84.12
75815;BME280;64451;45.574;14.224;2023-03-14T05:17:24;96128.13;;;8.75;84.96
75815;BME280;64451;45.574;14.224;2023-03-14T05:19:24;96132.16;;;8.78;84.83
75815;BME280;64451;45.574;14.224;2023-03-14T05:21:25;96116.75;;;8.83;84.23
75815;BME280;64451;45.574;14.224;2023-03-14T05:23:31;96120.63;;;8.77;84.52
75815;BME280;64451;45.574;14.224;2023-03-14T05:27:49;96092.03;;;9.00;82.64
75815;BME280;64451;45.574;14.224;2023-03-14T05:29:52;96091.63;;;8.93;83.37
75815;BME280;64451;45.574;14.224;2023-03-14T05:31:56;96094.03;;;8.94;83.23
75815;BME280;64451;45.574;14.224;2023-03-14T05:33:56;96093.53;;;9.06;82.30
75815;BME280;64451;45.574;14.224;2023-03-14T05:35:56;96100.88;;;9.00;82.62
75815;BME280;64451;45.574;14.224;2023-03-14T05:37:57;96100.56;;;8.88;83.97
75815;BME280;64451;45.574;14.224;2023-03-14T05:39:57;96102.84;;;8.81;84.25
75815;BME280;64451;45.574;14.224;2023-03-14T05:41:57;96096.66;;;8.81;84.43
75815;BME280;64451;45.574;14.224;2023-03-14T05:43:58;96089.34;;;8.86;84.40
75815;BME280;64451;45.574;14.224;2023-03-14T05:45:58;96090.88;;;8.73;85.74
75815;BME280;64451;45.574;14.224;2023-03-14T05:47:58;96108.00;;;8.78;85.61
75815;BME280;64451;45.574;14.224;2023-03-14T05:49:59;96091.19;;;8.72;86.08
75815;BME280;64451;45.574;14.224;2023-03-14T05:51:59;96100.63;;;8.83;84.76
75815;BME280;64451;45.574;14.224;2023-03-14T05:53:59;96125.28;;;8.85;85.16
75815;BME280;64451;45.574;14.224;2023-03-14T05:56:00;96125.69;;;8.92;85.20
75815;BME280;64451;45.574;14.224;2023-03-14T05:58:00;96118.66;;;8.96;83.90
75815;BME280;64451;45.574;14.224;2023-03-14T06:00:00;96110.03;;;8.99;83.56
75815;BME280;64451;45.574;14.224;2023-03-14T06:02:01;96107.44;;;9.08;82.93
75815;BME280;64451;45.574;14.224;2023-03-14T06:04:01;96103.47;;;9.06;82.55
75815;BME280;64451;45.574;14.224;2023-03-14T06:06:02;96095.63;;;9.09;82.84
75815;BME280;64451;45.574;14.224;2023-03-14T06:08:02;96084.50;;;9.16;82.01
75815;BME280;64451;45.574;14.224;2023-03-14T06:10:03;96080.41;;;9.18;81.29
75815;BME280;64451;45.574;14.224;2023-03-14T06:12:04;96060.66;;;9.14;82.77
75815;BME280;64451;45.574;14.224;2023-03-14T06:14:04;96059.88;;;9.27;81.79
75815;BME280;64451;45.574;14.224;2023-03-14T06:16:05;96056.47;;;9.22;81.63
75815;BME280;64451;45.574;14.224;2023-03-14T06:18:06;96035.69;;;9.27;81.16
75815;BME280;64451;45.574;14.224;2023-03-14T06:20:08;96018.41;;;9.20;80.86
75815;BME280;64451;45.574;14.224;2023-03-14T06:22:08;96021.88;;;9.20;80.57
75815;BME280;64451;45.574;14.224;2023-03-14T06:24:09;96020.78;;;9.21;80.55
75815;BME280;64451;45.574;14.224;2023-03-14T06:26:09;96021.66;;;9.17;81.45
75815;BME280;64451;45.574;14.224;2023-03-14T06:28:14;96011.63;;;9.22;80.09
75815;BME280;64451;45.574;14.224;2023-03-14T06:30:15;96016.28;;;9.17;80.51
75815;BME280;64451;45.574;14.224;2023-03-14T06:32:15;96018.66;;;9.18;81.21
75815;BME280;64451;45.574;14.224;2023-03-14T06:36:28;96014.31;;;9.22;79.58
75815;BME280;64451;45.574;14.224;2023-03-14T06:38:31;96008.63;;;9.24;79.58
75815;BME280;64451;45.574;14.224;2023-03-14T06:40:50;96010.84;;;9.36;78.55
75815;BME280;64451;45.574;14.224;2023-03-14T06:42:52;96006.84;;;9.33;79.75
75815;BME280;64451;45.574;14.224;2023-03-14T06:44:53;96013.22;;;9.37;78.61
75815;BME280;64451;45.574;14.224;2023-03-14T06:46:56;96027.13;;;9.53;78.27
75815;BME280;64451;45.574;14.224;2023-03-14T06:48:57;96025.41;;;9.57;77.32
75815;BME280;64451;45.574;14.224;2023-03-14T06:51:00;96024.44;;;9.53;77.45
75815;BME280;64451;45.574;14.224;2023-03-14T06:55:40;96027.00;;;9.58;77.05
75815;BME280;64451;45.574;14.224;2023-03-14T06:57:49;96046.72;;;9.40;78.00
75815;BME280;64451;45.574;14.224;2023-03-14T06:59:58;96051.13;;;9.36;77.62
75815;BME280;64451;45.574;14.224;2023-03-14T07:01:58;96051.19;;;9.44;75.55
75815;BME280;64451;45.574;14.224;2023-03-14T07:06:14;96051.47;;;9.43;75.65
75815;BME280;64451;45.574;14.224;2023-03-14T07:08:14;96031.41;;;9.40;75.00
75815;BME280;64451;45.574;14.224;2023-03-14T07:10:20;96025.16;;;9.45;74.37
75815;BME280;64451;45.574;14.224;2023-03-14T07:14:21;96002.56;;;9.46;72.82
75815;BME280;64451;45.574;14.224;2023-03-14T07:16:33;96000.19;;;9.44;72.92
75815;BME280;64451;45.574;14.224;2023-03-14T07:18:40;96014.09;;;9.33;74.09
75815;BME280;64451;45.574;14.224;2023-03-14T07:20:49;96006.34;;;9.17;75.44
75815;BME280;64451;45.574;14.224;2023-03-14T07:22:53;96003.47;;;9.14;76.06
75815;BME280;64451;45.574;14.224;2023-03-14T07:25:00;96006.75;;;8.97;77.10
75815;BME280;64451;45.574;14.224;2023-03-14T07:27:03;96016.38;;;8.84;78.45
75815;BME280;64451;45.574;14.224;2023-03-14T07:29:07;96020.53;;;8.77;80.14
75815;BME280;64451;45.574;14.224;2023-03-14T07:31:07;96016.38;;;8.70;79.88
75815;BME280;64451;45.574;14.224;2023-03-14T07:33:26;96009.44;;;8.83;78.51
75815;BME280;64451;45.574;14.224;2023-03-14T07:35:39;95996.69;;;8.61;81.99
75815;BME280;64451;45.574;14.224;2023-03-14T07:37:39;95988.16;;;8.73;79.55
75815;BME280;64451;45.574;14.224;2023-03-14T07:39:49;95983.28;;;8.75;80.26
75815;BME280;64451;45.574;14.224;2023-03-14T07:41:49;95971.06;;;8.83;79.26
75815;BME280;64451;45.574;14.224;2023-03-14T07:44:05;95982.09;;;8.81;79.24
75815;BME280;64451;45.574;14.224;2023-03-14T07:46:05;95982.81;;;8.87;78.70
75815;BME280;64451;45.574;14.224;2023-03-14T07:48:12;95984.88;;;8.90;78.98
75815;BME280;64451;45.574;14.224;2023-03-14T07:50:19;95970.00;;;8.97;78.00
75815;BME280;64451;45.574;14.224;2023-03-14T07:52:19;95958.38;;;9.02;77.57
75815;BME280;64451;45.574;14.224;2023-03-14T07:54:19;95948.53;;;8.97;78.77
75815;BME280;64451;45.574;14.224;2023-03-14T07:56:33;95947.13;;;9.00;77.32
75815;BME280;64451;45.574;14.224;2023-03-14T07:58:33;95939.06;;;9.00;78.78
75815;BME280;64451;45.574;14.224;2023-03-14T08:00:34;95952.88;;;9.07;77.88
75815;BME280;64451;45.574;14.224;2023-03-14T08:02:34;95950.59;;;9.14;78.08
75815;BME280;64451;45.574;14.224;2023-03-14T08:04:45;95955.16;;;9.14;77.28
75815;BME280;64451;45.574;14.224;2023-03-14T08:06:45;95963.63;;;9.07;77.86
75815;BME280;64451;45.574;14.224;2023-03-14T08:08:51;95965.41;;;9.12;76.52
75815;BME280;64451;45.574;14.224;2023-03-14T08:10:55;95972.47;;;9.08;77.25
75815;BME280;64451;45.574;14.224;2023-03-14T08:12:57;95970.66;;;9.17;76.41
75815;BME280;64451;45.574;14.224;2023-03-14T08:15:10;95970.25;;;9.10;77.81
75815;BME280;64451;45.574;14.224;2023-03-14T08:17:13;95974.94;;;9.18;76.33
75815;BME280;64451;45.574;14.224;2023-03-14T08:19:13;95979.22;;;9.19;77.40
75815;BME280;64451;45.574;14.224;2023-03-14T08:21:16;95973.44;;;9.25;77.39
75815;BME280;64451;45.574;14.224;2023-03-14T08:23:20;95956.13;;;9.32;75.97
75815;BME280;64451;45.574;14.224;2023-03-14T08:25:24;95960.00;;;9.39;75.46
75815;BME280;64451;45.574;14.224;2023-03-14T08:27:25;95953.66;;;9.71;77.06
75815;BME280;64451;45.574;14.224;2023-03-14T08:29:25;95956.13;;;10.26;75.05
75815;BME280;64451;45.574;14.224;2023-03-14T08:33:27;95955.75;;;9.97;73.31
75815;BME280;64451;45.574;14.224;2023-03-14T08:35:28;95922.31;;;9.89;72.34
75815;BME280;64451;45.574;14.224;2023-03-14T08:37:28;95935.81;;;9.75;72.83
75815;BME280;64451;45.574;14.224;2023-03-14T08:39:28;95945.09;;;9.69;72.75
75815;BME280;64451;45.574;14.224;2023-03-14T08:41:35;95951.69;;;9.63;73.66
75815;BME280;64451;45.574;14.224;2023-03-14T08:43:40;95940.47;;;9.61;73.07
75815;BME280;64451;45.574;14.224;2023-03-14T08:45:40;95932.88;;;9.63;73.67
75815;BME280;64451;45.574;14.224;2023-03-14T08:47:44;95930.00;;;9.60;74.06
75815;BME280;64451;45.574;14.224;2023-03-14T08:49:53;95936.19;;;9.60;74.08
75815;BME280;64451;45.574;14.224;2023-03-14T08:51:54;95926.16;;;9.52;75.25
75815;BME280;64451;45.574;14.224;2023-03-14T08:53:57;95923.72;;;9.64;74.18
75815;BME280;64451;45.574;14.224;2023-03-14T08:56:01;95929.00;;;9.69;74.64
75815;BME280;64451;45.574;14.224;2023-03-14T08:58:10;95904.66;;;9.74;74.07
75815;BME280;64451;45.574;14.224;2023-03-14T09:00:11;95924.88;;;9.72;73.55
75815;BME280;64451;45.574;14.224;2023-03-14T09:02:14;95874.81;;;9.76;74.38
75815;BME280;64451;45.574;14.224;2023-03-14T09:04:15;95867.56;;;9.76;75.37
75815;BME280;64451;45.574;14.224;2023-03-14T09:06:27;95874.69;;;9.58;76.00
75815;BME280;64451;45.574;14.224;2023-03-14T09:08:27;95871.41;;;9.62;75.77
75815;BME280;64451;45.574;14.224;2023-03-14T09:10:28;95877.13;;;9.46;77.00
75815;BME280;64451;45.574;14.224;2023-03-14T09:12:34;95875.16;;;9.38;77.62
75815;BME280;64451;45.574;14.224;2023-03-14T09:14:35;95868.63;;;9.31;78.55
75815;BME280;64451;45.574;14.224;2023-03-14T09:16:35;95885.22;;;9.33;77.37
75815;BME280;64451;45.574;14.224;2023-03-14T09:18:36;95903.22;;;9.32;78.35
75815;BME280;64451;45.574;14.224;2023-03-14T09:20:42;95908.13;;;9.30;77.76
75815;BME280;64451;45.574;14.224;2023-03-14T09:22:42;95904.81;;;9.33;77.54
75815;BME280;64451;45.574;14.224;2023-03-14T09:24:46;95884.63;;;9.36;77.78
75815;BME280;64451;45.574;14.224;2023-03-14T09:26:46;95855.34;;;9.48;77.09
75815;BME280;64451;45.574;14.224;2023-03-14T09:28:56;95878.03;;;9.42;77.39
75815;BME280;64451;45.574;14.224;2023-03-14T09:31:07;95889.78;;;9.46;76.34
75815;BME280;64451;45.574;14.224;2023-03-14T09:33:26;95901.84;;;9.57;76.45
75815;BME280;64451;45.574;14.224;2023-03-14T09:35:35;95907.72;;;9.59;75.66
75815;BME280;64451;45.574;14.224;2023-03-14T09:37:35;95909.50;;;9.64;75.15
75815;BME280;64451;45.574;14.224;2023-03-14T09:41:52;95921.59;;;9.75;74.00
75815;BME280;64451;45.574;14.224;2023-03-14T09:44:04;95939.94;;;9.59;76.28
75815;BME280;64451;45.574;14.224;2023-03-14T09:46:07;95935.09;;;9.61;75.14
75815;BME280;64451;45.574;14.224;2023-03-14T09:48:19;95944.75;;;9.48;76.85
75815;BME280;64451;45.574;14.224;2023-03-14T09:50:37;95915.03;;;9.45;77.47
75815;BME280;64451;45.574;14.224;2023-03-14T09:52:39;95923.59;;;9.47;78.03
75815;BME280;64451;45.574;14.224;2023-03-14T09:54:54;95926.97;;;9.39;77.97
75815;BME280;64451;45.574;14.224;2023-03-14T09:56:57;95893.97;;;9.38;78.14
75815;BME280;64451;45.574;14.224;2023-03-14T09:59:12;95898.25;;;9.39;77.87
75815;BME280;64451;45.574;14.224;2023-03-14T10:01:21;95918.75;;;9.35;77.85
75815;BME280;64451;45.574;14.224;2023-03-14T10:03:29;95920.91;;;9.33;79.01
75815;BME280;64451;45.574;14.224;2023-03-14T10:05:31;95904.81;;;9.33;78.11
75815;BME280;64451;45.574;14.224;2023-03-14T10:07:37;95895.16;;;9.32;78.80
75815;BME280;64451;45.574;14.224;2023-03-14T10:09:51;95833.56;;;9.27;79.77
75815;BME280;64451;45.574;14.224;2023-03-14T10:12:00;95854.66;;;9.20;80.06
75815;BME280;64451;45.574;14.224;2023-03-14T10:14:16;95849.41;;;9.01;81.24
75815;BME280;64451;45.574;14.224;2023-03-14T10:16:35;95863.38;;;8.89;82.42
75815;BME280;64451;45.574;14.224;2023-03-14T10:18:35;95871.41;;;8.76;83.91
75815;BME280;64451;45.574;14.224;2023-03-14T10:20:48;95865.66;;;8.68;85.54
75815;BME280;64451;45.574;14.224;2023-03-14T10:23:05;95871.41;;;8.76;84.95
75815;BME280;64451;45.574;14.224;2023-03-14T10:25:25;95878.09;;;8.78;84.26
75815;BME280;64451;45.574;14.224;2023-03-14T10:27:34;95892.31;;;8.79;84.90
75815;BME280;64451;45.574;14.224;2023-03-14T10:30:07;95881.75;;;8.82;84.00
75815;BME280;64451;45.574;14.224;2023-03-14T10:32:18;95873.91;;;8.86;83.51
75815;BME280;64451;45.574;14.224;2023-03-14T10:34:37;95860.59;;;8.81;84.88
75815;BME280;64451;45.574;14.224;2023-03-14T10:36:38;95862.97;;;8.82;84.02
75815;BME280;64451;45.574;14.224;2023-03-14T10:41:30;95848.06;;;8.90;85.18
75815;BME280;64451;45.574;14.224;2023-03-14T10:43:34;95843.78;;;8.89;85.48
75815;BME280;64451;45.574;14.224;2023-03-14T10:45:43;95831.69;;;8.78;85.50
75815;BME280;64451;45.574;14.224;2023-03-14T10:47:49;95840.94;;;8.71;86.21
75815;BME280;64451;45.574;14.224;2023-03-14T10:49:50;95837.88;;;8.64;86.35
75815;BME280;64451;45.574;14.224;2023-03-14T10:51:50;95849.00;;;8.58;86.72
75815;BME280;64451;45.574;14.224;2023-03-14T10:54:20;95849.19;;;8.61;86.59
75815;BME280;64451;45.574;14.224;2023-03-14T10:56:25;95856.44;;;8.61;86.86
75815;BME280;64451;45.574;14.224;2023-03-14T10:58:28;95838.16;;;8.63;86.22
75815;BME280;64451;45.574;14.224;2023-03-14T11:00:32;95846.53;;;8.61;86.66
75815;BME280;64451;45.574;14.224;2023-03-14T11:05:25;95849.69;;;8.63;87.28
75815;BME280;64451;45.574;14.224;2023-03-14T11:07:43;95843.41;;;8.68;87.24
75815;BME280;64451;45.574;14.224;2023-03-14T11:14:54;95839.06;;;8.72;86.76
75815;BME280;64451;45.574;14.224;2023-03-14T11:17:35;95836.53;;;8.76;86.71
75815;BME280;64451;45.574;14.224;2023-03-14T11:20:12;95825.81;;;8.76;88.26
75815;BME280;64451;45.574;14.224;2023-03-14T11:27:16;95795.59;;;8.84;87.71
75815;BME280;64451;45.574;14.224;2023-03-14T11:31:48;95812.63;;;8.79;88.20
75815;BME280;64451;45.574;14.224;2023-03-14T11:38:50;95784.47;;;8.77;88.30
75815;BME280;64451;45.574;14.224;2023-03-14T11:40:53;95785.97;;;8.83;88.35
75815;BME280;64451;45.574;14.224;2023-03-14T11:43:10;95777.91;;;8.83;88.44
75815;BME280;64451;45.574;14.224;2023-03-14T11:45:29;95771.34;;;8.89;87.68
75815;BME280;64451;45.574;14.224;2023-03-14T11:47:39;95771.34;;;8.89;88.80
75815;BME280;64451;45.574;14.224;2023-03-14T11:49:58;95785.94;;;8.96;88.20
75815;BME280;64451;45.574;14.224;2023-03-14T11:52:08;95796.38;;;8.98;88.30
75815;BME280;64451;45.574;14.224;2023-03-14T11:54:33;95786.84;;;8.92;89.26
75815;BME280;64451;45.574;14.224;2023-03-14T11:56:52;95793.28;;;8.91;89.44
75815;BME280;64451;45.574;14.224;2023-03-14T11:58:58;95783.25;;;8.96;88.94
75815;BME280;64451;45.574;14.224;2023-03-14T12:01:06;95778.69;;;8.97;89.62
75815;BME280;64451;45.574;14.224;2023-03-14T12:10:53;95777.56;;;8.98;90.44
75815;BME280;64451;45.574;14.224;2023-03-14T12:12:55;95764.41;;;8.88;90.72
75815;BME280;64451;45.574;14.224;2023-03-14T12:15:03;95772.63;;;8.91;91.02
75815;BME280;64451;45.574;14.224;2023-03-14T12:17:33;95764.88;;;8.90;91.83
75815;BME280;64451;45.574;14.224;2023-03-14T12:19:46;95779.72;;;8.87;92.15
75815;BME280;64451;45.574;14.224;2023-03-14T12:21:51;95785.59;;;8.76;93.16
75815;BME280;64451;45.574;14.224;2023-03-14T12:23:57;95789.28;;;8.66;94.05
75815;BME280;64451;45.574;14.224;2023-03-14T12:26:15;95763.97;;;8.58;95.23
75815;BME280;64451;45.574;14.224;2023-03-14T12:28:35;95765.75;;;8.63;95.67
75815;BME280;64451;45.574;14.224;2023-03-14T12:30:41;95749.19;;;8.61;95.45
75815;BME280;64451;45.574;14.224;2023-03-14T12:32:41;95750.94;;;8.65;95.03
75815;BME280;64451;45.574;14.224;2023-03-14T12:34:42;95755.50;;;8.65;95.21
75815;BME280;64451;45.574;14.224;2023-03-14T12:39:10;95768.38;;;8.54;96.86
75815;BME280;64451;45.574;14.224;2023-03-14T12:41:29;95762.47;;;8.52;97.29
75815;BME280;64451;45.574;14.224;2023-03-14T12:43:44;95751.97;;;8.56;97.95
75815;BME280;64451;45.574;14.224;2023-03-14T12:46:19;95745.31;;;8.53;98.31
75815;BME280;64451;45.574;14.224;2023-03-14T12:48:24;95749.38;;;8.51;98.36
75815;BME280;64451;45.574;14.224;2023-03-14T12:50:35;95750.78;;;8.48;98.68
75815;BME280;64451;45.574;14.224;2023-03-14T12:57:54;95747.41;;;8.42;99.93
75815;BME280;64451;45.574;14.224;2023-03-14T13:00:13;95734.09;;;8.51;98.98
75815;BME280;64451;45.574;14.224;2023-03-14T13:02:37;95735.41;;;8.54;98.93
75815;BME280;64451;45.574;14.224;2023-03-14T13:04:45;95726.84;;;8.52;99.08